Time;durP1;ratioP1;P1;durP2;ratioP2;P2;SDS_P1;SDS_P2;PMS_P1;PMS_P2;Temp;Humidity;BMP_temperature;BMP_pressure;BME280_temperature;BME280_humidity;BME280_pressure;Samples;Min_cycle;Max_cycle;Signal;HPM_P1;HPM_P2
2022/11/22 00:00:36;;;;;;;22.40;16.60;;;9.90;91.90;;;;;;5064705;28;20649;-66
2022/11/22 00:03:03;;;;;;;24.27;17.50;;;10.00;91.60;;;;;;5064660;28;20205;-67
2022/11/22 00:05:30;;;;;;;23.63;16.30;;;10.00;91.60;;;;;;5068198;28;20645;-67
2022/11/22 00:07:57;;;;;;;22.23;16.23;;;10.00;91.60;;;;;;5068826;28;20207;-67
2022/11/22 00:10:24;;;;;;;20.50;16.47;;;10.00;91.70;;;;;;5062089;28;20263;-67
2022/11/22 00:12:52;;;;;;;20.47;15.83;;;10.00;91.80;;;;;;5065259;28;20254;-67
2022/11/22 00:15:19;;;;;;;22.17;16.90;;;10.00;91.70;;;;;;5064706;28;20228;-67
2022/11/22 00:17:46;;;;;;;22.13;16.53;;;10.00;91.70;;;;;;5065804;28;20205;-66
2022/11/22 00:20:13;;;;;;;23.67;16.00;;;10.00;91.80;;;;;;5063337;28;20234;-66
2022/11/22 00:22:40;;;;;;;21.70;15.10;;;10.00;91.70;;;;;;5061639;28;20203;-66
2022/11/22 00:25:11;;;;;;;18.23;15.73;;;10.00;91.60;;;;;;5066933;28;20204;-66
2022/11/22 00:27:38;;;;;;;19.97;14.53;;;10.00;91.60;;;;;;5067701;28;20198;-66
2022/11/22 00:30:06;;;;;;;28.17;17.00;;;10.00;91.80;;;;;;5066791;28;20219;-67
2022/11/22 00:32:33;;;;;;;23.20;15.87;;;10.00;91.80;;;;;;5063383;28;20202;-67
2022/11/22 00:35:00;;;;;;;17.37;14.83;;;10.00;91.90;;;;;;5063112;28;20535;-66
2022/11/22 00:37:27;;;;;;;20.77;15.07;;;10.00;91.90;;;;;;5067963;28;20220;-66
2022/11/22 00:39:54;;;;;;;21.00;15.50;;;10.00;91.80;;;;;;5062441;28;20209;-67
2022/11/22 00:42:21;;;;;;;18.27;14.40;;;10.00;91.80;;;;;;5058759;28;20208;-67
2022/11/22 00:44:48;;;;;;;20.70;15.53;;;10.00;91.80;;;;;;5061212;28;20246;-67
2022/11/22 00:47:15;;;;;;;19.17;14.47;;;10.00;92.00;;;;;;5060399;28;20262;-66
2022/11/22 00:49:42;;;;;;;17.93;14.43;;;10.00;91.90;;;;;;5066437;28;20233;-66
2022/11/22 00:52:10;;;;;;;23.73;15.23;;;9.90;92.00;;;;;;5064274;28;20283;-66
2022/11/22 00:54:36;;;;;;;18.87;13.97;;;9.90;92.10;;;;;;5072714;28;20207;-66
2022/11/22 00:57:04;;;;;;;18.97;14.07;;;9.90;92.20;;;;;;5065994;28;20196;-67
2022/11/22 00:59:31;;;;;;;17.97;13.77;;;9.90;92.10;;;;;;5067255;28;20206;-66
2022/11/22 01:01:58;;;;;;;18.87;14.57;;;9.90;92.10;;;;;;5059577;28;20199;-67
2022/11/22 01:04:25;;;;;;;18.03;13.47;;;9.90;92.00;;;;;;5064941;28;20193;-66
2022/11/22 01:06:52;;;;;;;17.30;14.50;;;9.90;92.20;;;;;;5060749;28;20197;-66
2022/11/22 01:09:21;;;;;;;23.63;14.60;;;9.90;92.30;;;;;;5065184;28;20227;-66
2022/11/22 01:11:48;;;;;;;20.40;13.90;;;9.90;92.50;;;;;;5062764;28;20766;-67
2022/11/22 01:14:16;;;;;;;21.47;14.93;;;9.80;92.70;;;;;;5064901;28;20642;-66
2022/11/22 01:16:44;;;;;;;21.10;16.20;;;9.80;92.70;;;;;;5064756;28;20249;-67
2022/11/22 01:19:11;;;;;;;22.43;15.80;;;9.80;92.90;;;;;;5062114;28;20195;-66
2022/11/22 01:21:39;;;;;;;18.47;13.83;;;9.80;93.10;;;;;;5064153;28;20660;-66
2022/11/22 01:24:06;;;;;;;18.97;14.87;;;9.80;93.30;;;;;;5064895;28;20210;-66
2022/11/22 01:26:34;;;;;;;21.87;14.60;;;9.70;93.50;;;;;;5064504;28;20194;-66
2022/11/22 01:29:01;;;;;;;19.90;15.63;;;9.70;93.70;;;;;;5064057;28;20280;-66
2022/11/22 01:31:28;;;;;;;23.70;14.80;;;9.70;93.80;;;;;;5066924;28;20670;-65
2022/11/22 01:33:57;;;;;;;22.20;15.70;;;9.70;94.00;;;;;;5060987;28;20203;-66
2022/11/22 01:36:26;;;;;;;16.90;13.93;;;9.70;94.00;;;;;;5063677;28;20637;-66
2022/11/22 01:38:53;;;;;;;21.33;15.30;;;9.70;94.20;;;;;;5070330;28;20203;-67
2022/11/22 01:41:20;;;;;;;19.53;13.57;;;9.70;94.30;;;;;;5064462;28;20207;-66
2022/11/22 01:43:47;;;;;;;18.00;14.17;;;9.70;94.40;;;;;;5065636;28;20622;-66
2022/11/22 01:46:31;;;;;;;21.20;15.03;;;9.70;94.40;;;;;;5069106;28;20200;-65
2022/11/22 01:49:24;;;;;;;18.33;14.07;;;9.60;94.40;;;;;;5060293;28;20209;-65
2022/11/22 01:51:54;;;;;;;18.03;13.90;;;9.70;94.60;;;;;;5059944;28;20316;-65
2022/11/22 01:54:24;;;;;;;23.57;16.40;;;9.60;94.70;;;;;;5058275;28;20203;-66
2022/11/22 01:56:55;;;;;;;21.07;15.23;;;9.60;94.90;;;;;;5060350;28;20203;-66
2022/11/22 01:59:28;;;;;;;25.00;14.97;;;9.60;95.00;;;;;;5064255;28;20198;-66
2022/11/22 02:01:56;;;;;;;23.40;15.13;;;9.60;95.20;;;;;;5063842;28;20195;-65
2022/11/22 02:04:29;;;;;;;21.87;16.77;;;9.60;95.20;;;;;;5064663;28;20602;-66
2022/11/22 02:07:23;;;;;;;18.47;15.10;;;9.60;95.20;;;;;;5067974;28;20260;-65
2022/11/22 02:09:51;;;;;;;22.33;16.10;;;9.60;95.30;;;;;;5058510;28;20239;-65
2022/11/22 02:12:24;;;;;;;22.13;16.43;;;9.60;95.40;;;;;;5066709;28;20185;-65
2022/11/22 02:14:52;;;;;;;21.93;16.13;;;9.50;95.50;;;;;;5061976;28;20199;-65
2022/11/22 02:17:19;;;;;;;25.00;17.20;;;9.50;95.60;;;;;;5061212;28;20207;-65
2022/11/22 02:19:49;;;;;;;21.27;16.00;;;9.50;95.70;;;;;;5063733;28;20280;-65
2022/11/22 02:22:32;;;;;;;23.43;16.40;;;9.50;95.80;;;;;;5061732;28;20516;-66
2022/11/22 02:25:11;;;;;;;20.53;15.97;;;9.50;95.90;;;;;;5064947;28;20200;-66
2022/11/22 02:27:39;;;;;;;21.83;16.67;;;9.50;96.00;;;;;;5061757;28;20205;-65
2022/11/22 02:30:07;;;;;;;21.57;16.40;;;9.50;96.10;;;;;;5063741;28;20209;-66
2022/11/22 02:32:34;;;;;;;22.00;14.43;;;9.50;96.10;;;;;;5065275;28;20225;-66
2022/11/22 02:35:01;;;;;;;20.90;15.20;;;9.50;96.20;;;;;;5064753;28;20233;-66
2022/11/22 02:37:31;;;;;;;20.67;15.50;;;9.50;96.30;;;;;;5061604;28;20625;-66
2022/11/22 02:40:06;;;;;;;19.90;14.70;;;9.50;96.50;;;;;;5058250;28;20202;-66
2022/11/22 02:42:34;;;;;;;20.93;15.03;;;9.50;96.40;;;;;;5059556;28;20193;-65
2022/11/22 02:45:01;;;;;;;23.60;16.17;;;9.50;96.50;;;;;;5058637;28;20190;-66
2022/11/22 02:47:28;;;;;;;21.10;15.83;;;9.50;96.60;;;;;;5065366;28;20545;-66
2022/11/22 02:49:55;;;;;;;20.93;14.87;;;9.50;96.70;;;;;;5065543;28;20198;-67
2022/11/22 02:52:22;;;;;;;24.13;15.53;;;9.50;96.70;;;;;;5062343;28;20203;-66
2022/11/22 02:54:49;;;;;;;20.80;15.50;;;9.50;96.70;;;;;;5063116;28;20198;-66
2022/11/22 02:57:16;;;;;;;21.00;14.83;;;9.50;96.80;;;;;;5060765;28;20199;-66
2022/11/22 02:59:43;;;;;;;19.50;13.90;;;9.50;97.20;;;;;;5093183;28;20206;-66
2022/11/22 03:02:10;;;;;;;22.33;15.67;;;9.50;96.90;;;;;;5060253;28;20213;-65
2022/11/22 03:04:37;;;;;;;26.13;16.63;;;9.50;97.00;;;;;;5062248;28;20197;-66
2022/11/22 03:07:04;;;;;;;24.97;17.70;;;9.50;97.10;;;;;;5062290;28;20268;-66
2022/11/22 03:09:31;;;;;;;21.77;15.87;;;9.40;97.10;;;;;;5062298;28;20684;-66
2022/11/22 03:11:59;;;;;;;25.63;16.47;;;9.50;97.60;;;;;;5062675;28;20275;-66
2022/11/22 03:14:26;;;;;;;19.30;14.30;;;9.40;97.40;;;;;;5063174;28;20578;-66
2022/11/22 03:16:53;;;;;;;22.03;15.30;;;9.40;97.50;;;;;;5068608;28;20191;-67
2022/11/22 03:19:20;;;;;;;24.07;15.43;;;9.40;97.50;;;;;;5057808;28;20188;-66
2022/11/22 03:21:47;;;;;;;19.03;13.60;;;9.40;97.50;;;;;;5059348;28;20203;-66
2022/11/22 03:24:15;;;;;;;19.97;15.80;;;9.40;97.60;;;;;;5062024;28;20640;-66
2022/11/22 03:26:46;;;;;;;20.77;14.17;;;9.40;97.60;;;;;;5058678;28;20205;-66
2022/11/22 03:29:14;;;;;;;17.67;13.53;;;9.30;97.60;;;;;;5059916;28;20548;-66
2022/11/22 03:31:41;;;;;;;19.77;14.10;;;9.30;97.70;;;;;;5059430;28;20222;-66
2022/11/22 03:34:10;;;;;;;20.50;15.13;;;9.30;97.80;;;;;;5058299;28;20281;-66
2022/11/22 03:36:37;;;;;;;21.83;14.10;;;9.30;97.90;;;;;;5062076;28;20188;-66
2022/11/22 03:39:04;;;;;;;23.27;15.70;;;9.30;97.90;;;;;;5062234;28;20253;-65
2022/11/22 03:41:31;;;;;;;20.97;16.27;;;9.30;98.00;;;;;;5062109;28;20229;-66
2022/11/22 03:43:58;;;;;;;21.13;14.83;;;9.30;98.10;;;;;;5063174;28;20211;-66
2022/11/22 03:46:25;;;;;;;25.77;15.07;;;9.30;98.20;;;;;;5065189;28;20628;-66
2022/11/22 03:48:52;;;;;;;19.93;14.23;;;9.20;98.30;;;;;;5059927;28;20538;-66
2022/11/22 03:51:19;;;;;;;21.43;15.60;;;9.20;98.50;;;;;;5069466;28;20218;-66
2022/11/22 03:53:46;;;;;;;22.87;15.57;;;9.20;98.60;;;;;;5054636;28;20741;-67
2022/11/22 03:56:13;;;;;;;20.47;15.40;;;9.20;98.70;;;;;;5062058;28;20536;-66
2022/11/22 03:58:40;;;;;;;23.37;15.83;;;9.20;98.90;;;;;;5061206;28;20202;-67
2022/11/22 04:01:07;;;;;;;21.27;16.00;;;9.20;98.90;;;;;;5063521;28;20212;-66
2022/11/22 04:03:42;;;;;;;25.03;15.73;;;9.20;99.00;;;;;;5063257;28;20204;-67
2022/11/22 04:06:09;;;;;;;24.37;15.97;;;9.20;99.10;;;;;;5066722;28;20205;-67
2022/11/22 04:08:36;;;;;;;26.00;15.77;;;9.30;99.20;;;;;;5054551;28;20624;-67
2022/11/22 04:11:03;;;;;;;23.00;15.70;;;9.30;99.20;;;;;;5056280;28;20684;-67
2022/11/22 04:16:15;;;;;;;21.03;15.33;;;9.30;99.30;;;;;;5060523;28;20198;-67
2022/11/22 04:18:42;;;;;;;26.97;16.50;;;9.40;99.30;;;;;;5060645;28;20198;-67
2022/11/22 04:26:40;;;;;;;20.80;13.17;;;9.40;99.30;;;;;;5063409;28;20211;-66
2022/11/22 04:29:07;;;;;;;21.90;15.10;;;9.40;99.30;;;;;;5058736;28;20238;-66
2022/11/22 04:34:22;;;;;;;22.03;13.93;;;9.50;99.30;;;;;;5060704;28;20518;-66
2022/11/22 04:36:49;;;;;;;24.37;15.03;;;9.50;99.30;;;;;;5063770;28;20204;-66
2022/11/22 04:39:16;;;;;;;19.63;13.47;;;9.50;99.30;;;;;;5065896;28;20225;-67
2022/11/22 04:41:43;;;;;;;21.80;14.57;;;9.50;99.70;;;;;;5062994;28;20643;-68
2022/11/22 04:46:56;;;;;;;19.93;13.57;;;9.40;99.60;;;;;;5068046;28;20281;-67
2022/11/22 04:49:23;;;;;;;22.87;13.87;;;9.40;99.90;;;;;;5068098;28;20212;-68
2022/11/22 04:54:36;;;;;;;19.63;13.67;;;9.50;99.90;;;;;;5065115;28;20644;-67
2022/11/22 04:57:03;;;;;;;22.03;14.40;;;9.50;99.90;;;;;;5059041;28;20208;-68
2022/11/22 04:59:30;;;;;;;22.80;13.13;;;9.50;99.90;;;;;;5062586;28;20233;-67
2022/11/22 05:01:57;;;;;;;22.80;12.70;;;9.60;99.90;;;;;;5062891;28;20221;-67
2022/11/22 05:04:24;;;;;;;18.90;11.77;;;9.60;99.90;;;;;;5064941;28;20233;-67
2022/11/22 05:06:51;;;;;;;25.00;12.10;;;9.70;99.90;;;;;;5067436;28;20198;-68
2022/11/22 05:09:18;;;;;;;18.93;12.10;;;9.80;99.90;;;;;;5064858;28;20239;-67
2022/11/22 05:11:45;;;;;;;17.13;11.27;;;9.80;99.90;;;;;;5064902;28;20253;-67
2022/11/22 05:14:12;;;;;;;20.43;11.57;;;9.90;99.90;;;;;;5068862;28;20219;-67
2022/11/22 05:16:40;;;;;;;24.27;11.13;;;9.90;99.90;;;;;;5068111;28;20210;-68
2022/11/22 05:19:07;;;;;;;19.13;11.63;;;10.00;99.90;;;;;;5062425;28;20192;-68
2022/11/22 05:21:37;;;;;;;21.90;11.87;;;10.00;99.90;;;;;;5065150;28;20263;-68
2022/11/22 05:24:05;;;;;;;18.47;10.17;;;10.10;99.90;;;;;;5063111;28;20190;-68
2022/11/22 05:26:34;;;;;;;19.07;10.67;;;10.10;99.90;;;;;;5062890;28;20203;-68
2022/11/22 05:29:07;;;;;;;15.90;11.17;;;10.20;99.90;;;;;;5062516;28;20966;-68
2022/11/22 05:31:35;;;;;;;19.23;12.43;;;10.20;99.90;;;;;;5062707;28;20231;-68
2022/11/22 05:34:03;;;;;;;16.77;11.00;;;10.30;99.90;;;;;;5062400;28;20205;-68
2022/11/22 05:36:31;;;;;;;19.63;9.57;;;10.30;99.90;;;;;;5061054;28;20195;-68
2022/11/22 05:38:59;;;;;;;13.57;9.17;;;10.20;99.90;;;;;;5063139;28;20207;-67
2022/11/22 05:41:26;;;;;;;14.70;9.17;;;10.20;99.90;;;;;;5064850;28;20694;-68
2022/11/22 05:43:55;;;;;;;15.43;8.47;;;10.20;99.90;;;;;;5063071;28;20208;-67
2022/11/22 05:46:25;;;;;;;14.90;9.23;;;10.30;99.90;;;;;;5067469;28;20215;-68
2022/11/22 05:48:55;;;;;;;16.00;9.27;;;10.20;99.90;;;;;;5064620;28;20234;-68
2022/11/22 05:51:24;;;;;;;13.07;9.60;;;10.20;99.90;;;;;;5061049;28;20219;-68
2022/11/22 05:53:59;;;;;;;18.80;9.53;;;10.20;99.90;;;;;;5061561;28;20233;-68
2022/11/22 05:56:26;;;;;;;16.83;9.63;;;10.30;99.90;;;;;;5065826;28;20221;-68
2022/11/22 05:58:54;;;;;;;17.10;10.17;;;10.20;99.90;;;;;;5063291;28;20199;-68
2022/11/22 06:01:23;;;;;;;15.03;9.60;;;10.20;99.90;;;;;;5062557;28;20199;-68
2022/11/22 06:03:50;;;;;;;18.07;10.20;;;10.20;99.90;;;;;;5064355;28;20771;-68
2022/11/22 06:06:18;;;;;;;13.40;9.83;;;10.20;99.90;;;;;;5065026;28;20646;-68
2022/11/22 06:08:46;;;;;;;14.33;9.13;;;10.20;99.90;;;;;;5064020;28;20257;-68
2022/11/22 06:11:24;;;;;;;14.33;8.33;;;10.20;99.90;;;;;;5061823;28;20223;-68
2022/11/22 06:13:54;;;;;;;13.80;8.07;;;10.20;99.90;;;;;;5080756;28;20254;-68
2022/11/22 06:16:21;;;;;;;10.53;7.40;;;10.20;99.90;;;;;;5065660;28;20264;-68
2022/11/22 06:18:49;;;;;;;13.40;7.80;;;10.20;99.90;;;;;;5062913;28;20193;-68
2022/11/22 06:21:22;;;;;;;12.40;7.43;;;10.20;99.90;;;;;;5061590;28;20205;-68
2022/11/22 06:23:54;;;;;;;15.93;7.77;;;10.30;99.90;;;;;;5064113;28;20230;-68
2022/11/22 06:26:22;;;;;;;11.50;7.67;;;10.20;99.90;;;;;;5067029;28;20206;-68
2022/11/22 06:28:49;;;;;;;11.07;6.90;;;10.20;99.90;;;;;;5066313;28;20645;-68
2022/11/22 06:31:22;;;;;;;13.33;6.53;;;10.20;99.90;;;;;;5064999;28;20653;-68
2022/11/22 06:33:51;;;;;;;9.83;6.83;;;10.20;99.90;;;;;;5064030;28;20676;-68
2022/11/22 06:36:21;;;;;;;11.07;5.60;;;10.10;99.90;;;;;;5063432;28;20209;-68
2022/11/22 06:38:48;;;;;;;7.43;5.93;;;10.10;99.90;;;;;;5062244;28;20574;-69
2022/11/22 06:41:20;;;;;;;8.70;5.90;;;10.00;99.90;;;;;;5063207;28;20254;-68
2022/11/22 06:43:49;;;;;;;7.57;5.90;;;10.00;99.90;;;;;;5059969;28;20532;-69
2022/11/22 06:46:18;;;;;;;8.30;6.17;;;10.00;99.90;;;;;;5057928;28;20399;-68
2022/11/22 06:48:45;;;;;;;11.23;6.47;;;9.90;99.90;;;;;;5058960;28;20214;-68
2022/11/22 06:51:14;;;;;;;7.20;5.80;;;9.90;99.90;;;;;;5061093;28;20202;-69
2022/11/22 06:53:41;;;;;;;8.20;5.67;;;9.90;99.90;;;;;;5063030;28;20256;-68
2022/11/22 06:56:20;;;;;;;7.57;5.97;;;9.80;99.90;;;;;;5061109;28;21221;-68
2022/11/22 06:58:49;;;;;;;7.33;6.20;;;9.80;99.90;;;;;;5059410;28;20698;-67
2022/11/22 07:01:20;;;;;;;7.93;6.00;;;9.80;99.90;;;;;;5059516;28;20192;-67
2022/11/22 07:03:48;;;;;;;7.53;5.60;;;9.80;99.90;;;;;;5059654;28;20191;-67
2022/11/22 07:06:17;;;;;;;8.60;5.67;;;9.80;99.90;;;;;;5058820;28;20204;-67
2022/11/22 07:08:45;;;;;;;8.03;6.33;;;9.80;99.90;;;;;;5065435;28;20225;-67
2022/11/22 07:11:18;;;;;;;11.60;6.50;;;9.70;99.90;;;;;;5063555;28;20221;-68
2022/11/22 07:13:46;;;;;;;11.97;7.37;;;9.70;99.90;;;;;;5061644;28;20198;-67
2022/11/22 07:16:18;;;;;;;12.43;7.13;;;9.70;99.90;;;;;;5064690;28;20325;-67
2022/11/22 07:18:46;;;;;;;10.97;7.23;;;9.70;99.90;;;;;;5055856;28;20202;-67
2022/11/22 07:21:21;;;;;;;12.00;7.80;;;9.70;99.90;;;;;;5056374;28;20196;-70
2022/11/22 07:23:51;;;;;;;10.13;7.03;;;9.70;99.90;;;;;;5062907;28;20202;-68
2022/11/22 07:26:19;;;;;;;14.33;7.30;;;9.80;99.90;;;;;;5062615;28;20196;-68
2022/11/22 07:28:47;;;;;;;10.57;6.80;;;9.80;99.90;;;;;;5062348;28;20208;-68
2022/11/22 07:31:15;;;;;;;9.27;7.17;;;9.80;99.90;;;;;;5062409;28;20199;-68
2022/11/22 07:33:43;;;;;;;10.70;7.20;;;9.80;99.90;;;;;;5062904;28;20642;-67
2022/11/22 07:36:16;;;;;;;12.40;6.80;;;9.80;99.90;;;;;;5064188;28;20225;-67
2022/11/22 07:38:44;;;;;;;8.67;6.03;;;9.80;99.90;;;;;;5058908;28;20636;-68
2022/11/22 07:41:12;;;;;;;9.47;6.13;;;9.90;99.90;;;;;;5062019;28;20204;-68
2022/11/22 07:43:39;;;;;;;6.60;5.20;;;9.90;99.90;;;;;;5060835;28;20219;-67
2022/11/22 07:46:19;;;;;;;7.73;5.33;;;9.90;99.90;;;;;;5063146;28;20260;-66
2022/11/22 07:48:48;;;;;;;9.07;5.60;;;9.90;99.90;;;;;;5060878;28;20194;-67
2022/11/22 07:51:15;;;;;;;8.50;4.70;;;9.90;99.90;;;;;;5057920;28;20545;-67
2022/11/22 07:53:42;;;;;;;6.20;4.10;;;9.90;99.90;;;;;;5063600;28;20198;-67
2022/11/22 07:56:10;;;;;;;5.30;3.87;;;9.90;99.90;;;;;;5061922;28;20188;-67
2022/11/22 07:58:37;;;;;;;3.97;2.83;;;9.90;99.90;;;;;;5059626;28;20265;-70
2022/11/22 08:01:06;;;;;;;4.17;3.20;;;9.90;99.90;;;;;;5067880;28;20192;-66
2022/11/22 08:03:33;;;;;;;5.87;2.97;;;9.90;99.90;;;;;;5063779;28;20641;-67
2022/11/22 08:06:02;;;;;;;4.40;3.40;;;9.90;99.90;;;;;;5063123;28;20194;-66
2022/11/22 08:08:30;;;;;;;5.27;2.90;;;9.90;99.90;;;;;;5060321;28;20207;-68
2022/11/22 08:10:57;;;;;;;5.27;3.43;;;9.90;99.90;;;;;;5058156;28;20607;-67
2022/11/22 08:13:24;;;;;;;3.53;2.97;;;9.90;99.90;;;;;;5061205;28;20239;-67
2022/11/22 08:15:52;;;;;;;6.30;2.50;;;9.90;99.90;;;;;;5065176;28;20687;-67
2022/11/22 08:18:21;;;;;;;4.57;2.67;;;9.90;99.90;;;;;;5066908;28;20264;-68
2022/11/22 08:20:48;;;;;;;4.03;2.20;;;9.90;99.90;;;;;;5054656;28;20250;-70
2022/11/22 08:23:15;;;;;;;2.60;2.10;;;9.90;99.90;;;;;;5065676;28;20209;-67
2022/11/22 08:25:42;;;;;;;4.67;2.33;;;9.90;99.90;;;;;;5068641;28;20199;-67
2022/11/22 08:28:10;;;;;;;4.00;2.47;;;9.90;99.90;;;;;;5064133;28;20207;-67
2022/11/22 08:30:37;;;;;;;5.77;2.30;;;9.90;99.90;;;;;;5064025;28;20219;-67
2022/11/22 08:33:04;;;;;;;5.80;2.00;;;9.90;99.90;;;;;;5062499;28;20210;-67
2022/11/22 08:35:32;;;;;;;2.80;2.27;;;9.90;99.90;;;;;;5062367;28;20195;-68
2022/11/22 08:37:59;;;;;;;6.03;2.50;;;9.90;99.90;;;;;;5068081;28;20200;-67
2022/11/22 08:40:26;;;;;;;4.47;2.10;;;9.90;99.90;;;;;;5065432;28;20639;-67
2022/11/22 08:42:54;;;;;;;4.37;1.90;;;9.90;99.90;;;;;;5063000;28;20581;-67
2022/11/22 08:45:21;;;;;;;2.20;1.53;;;10.00;99.90;;;;;;5071927;28;20218;-67
2022/11/22 08:47:49;;;;;;;2.60;2.07;;;10.00;99.90;;;;;;5067126;28;20316;-67
2022/11/22 08:50:17;;;;;;;2.33;2.13;;;10.00;99.90;;;;;;5059373;28;20260;-67
2022/11/22 08:52:44;;;;;;;4.13;2.33;;;10.00;99.90;;;;;;5063807;28;20219;-67
2022/11/22 08:55:11;;;;;;;4.20;2.00;;;10.00;99.90;;;;;;5064272;28;20195;-67
2022/11/22 08:57:38;;;;;;;4.73;2.00;;;10.00;99.90;;;;;;5063419;28;20208;-67
2022/11/22 09:00:06;;;;;;;3.33;1.83;;;10.10;99.90;;;;;;5062984;28;20204;-67
2022/11/22 09:02:33;;;;;;;1.83;1.60;;;10.10;99.90;;;;;;5062809;28;20213;-67
2022/11/22 09:05:00;;;;;;;3.03;1.93;;;10.10;99.90;;;;;;5064578;28;20238;-69
2022/11/22 09:07:28;;;;;;;4.23;1.80;;;10.20;99.90;;;;;;5067982;28;20206;-68
2022/11/22 09:10:15;;;;;;;2.23;1.90;;;10.20;99.90;;;;;;5060312;28;20263;-68
2022/11/22 09:12:46;;;;;;;2.03;1.83;;;10.20;99.90;;;;;;5063175;28;20620;-68
2022/11/22 09:15:14;;;;;;;2.83;1.73;;;10.20;99.90;;;;;;5062775;28;20200;-67
2022/11/22 09:17:42;;;;;;;2.17;1.70;;;10.20;99.90;;;;;;5062085;28;20222;-68
2022/11/22 09:20:10;;;;;;;1.87;1.40;;;10.20;99.90;;;;;;5063529;28;20225;-69
2022/11/22 09:22:38;;;;;;;2.13;1.43;;;10.20;99.90;;;;;;5065250;28;20203;-68
2022/11/22 09:25:05;;;;;;;1.67;1.40;;;10.20;99.90;;;;;;5060765;28;20207;-68
2022/11/22 09:27:33;;;;;;;4.53;1.30;;;10.20;99.90;;;;;;5066060;28;20202;-67
2022/11/22 09:30:00;;;;;;;2.50;1.03;;;10.30;99.90;;;;;;5064577;28;20629;-68
2022/11/22 09:32:27;;;;;;;2.80;1.03;;;10.30;99.90;;;;;;5064312;28;20584;-68
2022/11/22 09:34:59;;;;;;;2.70;1.00;;;10.30;99.90;;;;;;5065010;28;20256;-67
2022/11/22 09:37:26;;;;;;;1.73;0.90;;;10.30;99.90;;;;;;5064654;28;20206;-68
2022/11/22 09:39:53;;;;;;;2.77;1.13;;;10.30;99.90;;;;;;5062506;28;20248;-67
2022/11/22 09:42:34;;;;;;;0.90;0.90;;;10.30;99.90;;;;;;5061192;28;20198;-67
2022/11/22 09:45:22;;;;;;;1.30;1.20;;;10.20;99.90;;;;;;5065601;28;20255;-68
2022/11/22 09:48:11;;;;;;;1.47;1.10;;;10.20;99.90;;;;;;5062739;28;20286;-67
2022/11/22 09:50:46;;;;;;;3.67;0.90;;;10.20;99.90;;;;;;5062489;28;20270;-68
2022/11/22 09:53:23;;;;;;;2.30;1.57;;;10.30;99.90;;;;;;5065224;28;20223;-69
2022/11/22 09:55:58;;;;;;;2.07;1.30;;;10.20;99.90;;;;;;5059573;28;20202;-67
2022/11/22 09:58:32;;;;;;;2.47;1.57;;;10.30;99.90;;;;;;5057301;28;20204;-68
2022/11/22 10:01:12;;;;;;;1.30;1.00;;;10.30;99.90;;;;;;5066977;28;20194;-67
2022/11/22 10:03:39;;;;;;;2.43;1.40;;;10.30;99.90;;;;;;5059319;28;20555;-68
2022/11/22 10:06:15;;;;;;;1.97;1.37;;;10.30;99.90;;;;;;5061324;28;20641;-67
2022/11/22 10:08:59;;;;;;;2.97;1.20;;;10.30;99.90;;;;;;5060762;28;20278;-68
2022/11/22 10:11:57;;;;;;;3.73;1.20;;;10.30;99.90;;;;;;5061300;28;20199;-68
2022/11/22 10:14:35;;;;;;;1.13;1.03;;;10.30;99.90;;;;;;5065457;28;20635;-68
2022/11/22 10:17:18;;;;;;;2.03;1.17;;;10.30;99.90;;;;;;5060407;28;20190;-68
2022/11/22 10:20:08;;;;;;;1.30;1.20;;;10.30;99.90;;;;;;5061327;28;20211;-67
2022/11/22 10:22:35;;;;;;;1.30;1.20;;;10.30;99.90;;;;;;5065034;28;20210;-68
2022/11/22 10:25:15;;;;;;;3.17;1.30;;;10.30;99.90;;;;;;5065604;28;20200;-67
2022/11/22 10:27:43;;;;;;;1.90;1.30;;;10.30;99.90;;;;;;5073551;28;20194;-68
2022/11/22 10:30:16;;;;;;;1.00;0.90;;;10.30;99.90;;;;;;5062412;28;20192;-68
2022/11/22 10:33:04;;;;;;;2.00;1.20;;;10.30;99.90;;;;;;5060435;28;20610;-68
2022/11/22 10:35:50;;;;;;;1.63;1.20;;;10.30;99.90;;;;;;5067247;28;20201;-68
2022/11/22 10:38:37;;;;;;;0.73;0.70;;;10.30;99.90;;;;;;5063709;28;20204;-67
2022/11/22 10:41:32;;;;;;;1.30;1.20;;;10.30;99.90;;;;;;5081558;28;20634;-68
2022/11/22 10:44:14;;;;;;;1.90;1.13;;;10.20;99.90;;;;;;5067057;28;20575;-67
2022/11/22 10:47:30;;;;;;;1.93;0.90;;;10.20;99.90;;;;;;5062075;28;20212;-68
2022/11/22 10:50:10;;;;;;;1.33;1.23;;;10.20;99.90;;;;;;5065532;28;20217;-68
2022/11/22 10:52:59;;;;;;;2.13;1.20;;;10.10;99.90;;;;;;5059876;28;20548;-67
2022/11/22 10:55:38;;;;;;;0.97;0.97;;;10.10;99.90;;;;;;5069502;28;20685;-68
2022/11/22 10:58:25;;;;;;;3.07;1.30;;;10.10;99.90;;;;;;5062171;28;20534;-68
2022/11/22 11:01:10;;;;;;;1.20;1.00;;;10.00;99.90;;;;;;5060540;28;20591;-68
2022/11/22 11:03:40;;;;;;;1.10;1.00;;;10.00;99.90;;;;;;5064596;28;20211;-68
2022/11/22 11:06:15;;;;;;;4.90;1.30;;;10.00;99.90;;;;;;5067970;28;20200;-68
2022/11/22 11:09:05;;;;;;;2.40;1.20;;;9.90;99.90;;;;;;5059474;28;20266;-67
2022/11/22 11:11:53;;;;;;;1.40;1.30;;;10.00;99.90;;;;;;5060707;28;20237;-67
2022/11/22 11:14:42;;;;;;;2.67;1.20;;;10.00;99.90;;;;;;5062929;28;20217;-67
2022/11/22 11:17:17;;;;;;;1.30;1.20;;;10.00;99.90;;;;;;5060841;28;20201;-67
2022/11/22 11:19:48;;;;;;;1.10;1.00;;;9.90;99.90;;;;;;5059590;28;20214;-67
2022/11/22 11:22:21;;;;;;;4.13;1.23;;;10.00;99.90;;;;;;5060640;28;20206;-67
2022/11/22 11:25:41;;;;;;;3.93;1.30;;;9.90;99.90;;;;;;5062125;28;20202;-65
2022/11/22 11:28:28;;;;;;;1.90;1.30;;;9.90;99.90;;;;;;5062120;28;20190;-66
2022/11/22 11:31:08;;;;;;;1.07;0.93;;;9.90;99.90;;;;;;5064505;28;20209;-66
2022/11/22 11:33:38;;;;;;;1.50;1.40;;;9.90;99.90;;;;;;5062072;28;20669;-66
2022/11/22 11:36:13;;;;;;;2.20;0.80;;;9.90;99.90;;;;;;5062565;28;20204;-67
2022/11/22 11:38:40;;;;;;;2.03;1.27;;;9.90;99.90;;;;;;5055752;28;20195;-66
2022/11/22 11:41:29;;;;;;;2.03;1.13;;;9.90;99.90;;;;;;5055035;28;20273;-66
2022/11/22 11:44:04;;;;;;;3.13;1.50;;;9.90;99.90;;;;;;5061780;28;20220;-66
2022/11/22 11:46:40;;;;;;;4.60;1.27;;;9.90;99.90;;;;;;5065854;28;20194;-67
2022/11/22 11:49:15;;;;;;;2.37;1.20;;;9.90;99.90;;;;;;5068295;28;20203;-71
2022/11/22 11:51:47;;;;;;;2.07;0.90;;;9.90;99.90;;;;;;5065904;28;20232;-67
2022/11/22 11:54:21;;;;;;;4.47;1.13;;;9.90;99.90;;;;;;5069170;28;20652;-67
2022/11/22 11:56:54;;;;;;;1.63;1.10;;;9.90;99.90;;;;;;5057647;28;20194;-67
2022/11/22 11:59:24;;;;;;;1.63;0.80;;;9.80;99.90;;;;;;5059884;28;20198;-67
2022/11/22 12:02:05;;;;;;;3.23;1.03;;;9.80;99.90;;;;;;5064646;28;20203;-68
2022/11/22 12:04:36;;;;;;;1.67;1.17;;;9.80;99.90;;;;;;5065846;28;20297;-67
2022/11/22 12:07:17;;;;;;;2.23;1.07;;;9.80;99.90;;;;;;5064959;28;20207;-67
2022/11/22 12:09:47;;;;;;;1.60;1.20;;;9.80;99.90;;;;;;5062432;28;20258;-67
2022/11/22 12:12:35;;;;;;;1.27;1.10;;;9.80;99.90;;;;;;5063075;28;20199;-67
2022/11/22 12:15:02;;;;;;;1.93;1.13;;;9.80;99.90;;;;;;5063713;28;20784;-68
2022/11/22 12:17:55;;;;;;;1.70;1.40;;;9.80;99.90;;;;;;5067166;28;20195;-68
2022/11/22 12:20:41;;;;;;;1.50;1.20;;;9.80;99.90;;;;;;5071291;28;20195;-68
2022/11/22 12:23:23;;;;;;;3.63;1.60;;;9.90;99.90;;;;;;5081493;28;20209;-68
2022/11/22 12:25:55;;;;;;;2.17;1.27;;;9.90;99.90;;;;;;5069676;28;20214;-68
2022/11/22 12:28:24;;;;;;;3.53;1.40;;;9.90;99.90;;;;;;5062854;28;20267;-68
2022/11/22 12:30:57;;;;;;;3.53;1.53;;;9.90;99.90;;;;;;5063376;28;20517;-68
2022/11/22 12:33:46;;;;;;;4.70;1.23;;;9.90;99.90;;;;;;5062041;28;20319;-68
2022/11/22 12:36:38;;;;;;;2.17;1.50;;;9.90;99.90;;;;;;5066190;28;20202;-70
2022/11/22 12:39:11;;;;;;;2.07;1.20;;;9.90;99.90;;;;;;5069393;28;20206;-69
2022/11/22 12:41:39;;;;;;;4.13;2.20;;;9.80;99.90;;;;;;5064436;28;20202;-68
2022/11/22 12:44:12;;;;;;;4.13;3.70;;;9.90;99.90;;;;;;5068068;28;20279;-68
2022/11/22 12:46:43;;;;;;;4.47;2.63;;;9.80;99.90;;;;;;5064467;28;20204;-68
2022/11/22 12:49:24;;;;;;;6.27;2.37;;;9.80;99.90;;;;;;5061668;28;20199;-68
2022/11/22 12:52:22;;;;;;;5.10;1.00;;;9.80;99.90;;;;;;5060996;28;20202;-67
2022/11/22 12:55:20;;;;;;;3.40;1.47;;;9.80;99.90;;;;;;5062636;28;20630;-68
2022/11/22 12:58:05;;;;;;;2.67;1.50;;;9.70;99.90;;;;;;5065120;28;20663;-68
2022/11/22 13:00:39;;;;;;;5.87;2.00;;;9.70;99.90;;;;;;5063649;28;20273;-68
2022/11/22 13:03:14;;;;;;;3.60;2.37;;;9.60;99.90;;;;;;5068495;28;20213;-68
2022/11/22 13:05:50;;;;;;;5.13;2.27;;;9.60;99.90;;;;;;5073001;28;20197;-68
2022/11/22 13:08:53;;;;;;;2.30;1.83;;;9.60;99.90;;;;;;5062013;28;20659;-68
2022/11/22 13:11:31;;;;;;;2.47;1.73;;;9.60;99.90;;;;;;5063259;28;20195;-70
2022/11/22 13:14:33;;;;;;;3.17;1.37;;;9.60;99.90;;;;;;5063359;28;20247;-68
2022/11/22 13:17:06;;;;;;;7.33;2.20;;;9.50;99.90;;;;;;5063152;28;20676;-68
2022/11/22 13:19:43;;;;;;;5.10;2.20;;;9.50;99.90;;;;;;5062038;28;20198;-68
2022/11/22 13:22:15;;;;;;;3.67;2.47;;;9.50;99.90;;;;;;5061599;28;20187;-69